KIYA

Abbeville Chris Crusta Memorial Airport

Abbeville, Louisiana, USA
METAR KIYA 151910Z AUTO 16012G16KT 10SM OVC016 23/20 A2983 RMK AO2 T02250200
Observed Flight Rules
Feb-15 @ 19:10 UTC (34 minutes ago) Marginal Visual Flight Rules
Wind Visibility Clouds
160° at 12 knots
 Gusting to 16 knots
10 miles
  • Overcast at 1,600' AGL
Temperatures Readings
Current 23°C / 73°F
Dewpoint 20°C / 68°F
Humidity 83%
Altimeter 29.83" Hg
Pressure 1010.12 hPa
Elevation 5
METAR KIYA 151910Z AUTO 16012G16KT 10SM OVC016 23/20 A2983 RMK AO2 T02250200
Observed Flight Rules
Feb-15 @ 19:10 UTC
(34 minutes ago)
MVFR
Wind Visibility
160° at 12 knots
 Gusting to 16 knots
10 miles
Clouds
  • Overcast at 1,600' AGL
Temperature Dewpoint
23°C / 73°F 20°C / 68°F
Humidity Altimeter Pressure
83% 29.83" Hg 1010.12 hPa